Time;durP1;ratioP1;P1;durP2;ratioP2;P2;SDS_P1;SDS_P2;PMS_P1;PMS_P2;Temp;Humidity;BMP_temperature;BMP_pressure;BME280_temperature;BME280_humidity;BME280_pressure;Samples;Min_cycle;Max_cycle;Signal;HPM_P1;HPM_P2
2021/03/18 00:03:32;;;;;;;53.22;12.43;;;;;;;5.11;47.41;98241.97;10538591;28;20060;-51
2021/03/18 00:08:36;;;;;;;46.45;10.57;;;;;;;5.06;47.24;98224.97;10539125;28;20392;-52
2021/03/18 00:13:38;;;;;;;60.70;14.95;;;;;;;5.07;47.69;98216.19;10539063;28;20070;-52
2021/03/18 00:18:42;;;;;;;51.03;12.88;;;;;;;5.09;47.72;98208.25;10538944;28;20052;-51
2021/03/18 00:23:45;;;;;;;48.28;11.02;;;;;;;5.06;47.68;98209.34;10539192;28;20060;-51
2021/03/18 00:28:47;;;;;;;52.80;14.73;;;;;;;5.05;47.61;98206.88;10537533;28;20052;-52
2021/03/18 00:33:49;;;;;;;63.72;12.38;;;;;;;4.94;47.51;98199.16;10538752;28;20093;-50
2021/03/18 00:38:52;;;;;;;47.42;14.55;;;;;;;4.90;47.68;98195.16;10538637;28;20048;-54
2021/03/18 00:43:54;;;;;;;52.83;11.75;;;;;;;4.94;48.05;98199.16;10538775;28;20166;-52
2021/03/18 00:48:57;;;;;;;68.40;13.40;;;;;;;4.93;47.65;98200.94;10538888;28;20050;-52
2021/03/18 00:54:00;;;;;;;61.33;14.50;;;;;;;4.89;47.68;98191.72;10543557;28;20453;-53
2021/03/18 00:59:02;;;;;;;57.58;14.38;;;;;;;4.87;47.83;98187.63;10542162;28;20047;-52
2021/03/18 01:04:05;;;;;;;70.18;13.10;;;;;;;4.86;47.93;98186.78;10539672;28;20075;-53
2021/03/18 01:09:08;;;;;;;55.28;12.10;;;;;;;4.78;48.01;98189.22;10540190;28;20044;-53
2021/03/18 01:14:12;;;;;;;49.22;13.23;;;;;;;4.74;48.49;98193.03;10538464;28;20476;-52
2021/03/18 01:19:15;;;;;;;71.53;13.15;;;;;;;4.73;48.62;98184.41;10542397;28;20052;-52
2021/03/18 01:24:18;;;;;;;50.33;12.97;;;;;;;4.75;48.67;98184.28;10545250;28;20404;-51
2021/03/18 01:29:20;;;;;;;71.03;15.85;;;;;;;4.75;48.06;98189.50;10546442;28;20477;-52
2021/03/18 01:34:21;;;;;;;72.20;13.90;;;;;;;4.72;48.36;98187.16;10548713;28;20043;-52
2021/03/18 01:39:24;;;;;;;52.58;12.65;;;;;;;4.76;48.47;98181.53;10544581;28;20048;-51
2021/03/18 01:44:26;;;;;;;41.83;12.63;;;;;;;4.80;48.16;98171.69;10545101;28;20146;-51
2021/03/18 01:49:27;;;;;;;43.72;12.57;;;;;;;4.84;48.58;98178.28;10543487;28;20048;-51
2021/03/18 01:54:30;;;;;;;52.50;13.10;;;;;;;4.79;48.11;98170.03;10544506;28;20449;-51
2021/03/18 01:59:31;;;;;;;67.45;12.88;;;;;;;4.61;48.69;98169.84;10543831;28;20443;-52
2021/03/18 02:04:33;;;;;;;44.95;14.25;;;;;;;4.63;49.06;98169.72;10543746;28;20137;-51
2021/03/18 02:09:36;;;;;;;60.30;14.23;;;;;;;4.70;48.61;98166.44;10544550;28;20147;-52
2021/03/18 02:14:38;;;;;;;57.25;12.77;;;;;;;4.73;48.69;98170.56;10544566;28;20507;-52
2021/03/18 02:20:12;;;;;;;64.95;13.38;;;;;;;4.82;48.42;98164.56;10543584;28;20044;-51
2021/03/18 02:25:21;;;;;;;61.92;14.65;;;;;;;4.81;48.83;98152.53;10543979;28;20457;-52
2021/03/18 02:30:57;;;;;;;52.30;13.82;;;;;;;4.85;48.35;98162.53;10542688;28;20051;-51
2021/03/18 02:36:02;;;;;;;;;;;;;;;4.87;48.72;98169.41;10543730;28;20148;-52
2021/03/18 02:41:04;;;;;;;;;;;;;;;4.89;48.55;98163.06;10542973;28;20030;-51
2021/03/18 02:46:07;;;;;;;54.53;12.25;;;;;;;4.84;48.82;98152.25;10543279;28;20497;-57
2021/03/18 02:51:14;;;;;;;44.63;12.87;;;;;;;4.82;48.69;98148.94;10544731;28;20059;-51
2021/03/18 02:56:19;;;;;;;42.17;13.50;;;;;;;4.75;48.83;98150.44;10544896;28;20040;-50
2021/03/18 03:01:23;;;;;;;56.47;15.48;;;;;;;4.77;48.91;98151.13;10538534;28;20392;-53
2021/03/18 03:06:28;;;;;;;49.40;13.15;;;;;;;4.80;48.81;98143.03;10535511;28;20044;-51
2021/03/18 03:11:32;;;;;;;53.85;13.18;;;;;;;4.79;48.90;98146.63;10541572;28;20055;-51
2021/03/18 03:16:34;;;;;;;;;;;;;;;4.82;48.88;98144.56;10543299;28;20048;-52
2021/03/18 03:21:37;;;;;;;55.67;13.02;;;;;;;4.84;48.54;98141.84;10544818;28;19928;-51
2021/03/18 03:26:39;;;;;;;69.83;13.27;;;;;;;4.89;48.93;98141.44;10541395;28;20373;-51
2021/03/18 03:31:41;;;;;;;53.83;13.98;;;;;;;4.92;48.48;98134.16;10540383;28;20407;-52
2021/03/18 03:36:46;;;;;;;53.58;12.80;;;;;;;4.94;48.74;98137.47;10540976;28;20062;-53
2021/03/18 03:41:47;;;;;;;50.72;12.98;;;;;;;4.95;48.85;98139.09;10544760;28;20062;-53
2021/03/18 03:46:51;;;;;;;54.45;14.05;;;;;;;4.98;48.80;98141.44;10545574;28;20108;-51
2021/03/18 03:52:01;;;;;;;85.13;15.10;;;;;;;4.94;48.36;98140.06;10542066;28;20040;-52
2021/03/18 03:57:08;;;;;;;56.53;14.13;;;;;;;4.88;48.48;98130.19;10539405;28;20112;-51
2021/03/18 04:02:11;;;;;;;54.58;12.15;;;;;;;4.90;48.60;98125.69;10538734;28;20044;-52
2021/03/18 04:07:17;;;;;;;43.05;12.75;;;;;;;4.99;48.88;98119.69;10536073;28;20055;-52
2021/03/18 04:12:21;;;;;;;49.13;14.45;;;;;;;5.00;49.02;98121.31;10537194;28;20446;-51
2021/03/18 04:17:24;;;;;;;50.45;14.93;;;;;;;4.93;49.00;98115.00;10538219;28;20051;-52
2021/03/18 04:22:28;;;;;;;59.55;16.83;;;;;;;4.99;48.71;98116.25;10529750;28;20052;-52
2021/03/18 04:27:31;;;;;;;51.75;15.05;;;;;;;5.15;48.50;98113.94;10539195;28;20495;-56
2021/03/18 04:32:34;;;;;;;64.57;14.50;;;;;;;5.25;48.51;98109.56;10535117;28;20048;-52
2021/03/18 04:37:37;;;;;;;58.05;15.20;;;;;;;5.40;48.31;98109.16;10538893;28;20385;-52
2021/03/18 04:42:40;;;;;;;59.97;15.32;;;;;;;5.66;48.78;98101.59;10538155;28;20055;-51
2021/03/18 04:47:42;;;;;;;54.27;14.90;;;;;;;5.67;48.61;98098.03;10537803;28;20484;-52
2021/03/18 04:52:45;;;;;;;54.45;14.43;;;;;;;5.79;48.80;98107.34;10540766;28;20044;-57
2021/03/18 04:58:03;;;;;;;52.10;12.82;;;;;;;6.01;48.25;98110.66;10546854;28;20055;-54
2021/03/18 05:03:08;;;;;;;52.13;13.55;;;;;;;6.10;48.15;98113.22;10547779;28;20103;-71
2021/03/18 05:08:12;;;;;;;55.35;13.48;;;;;;;6.19;47.85;98114.16;10509364;28;20040;-51
2021/03/18 05:13:14;;;;;;;43.75;12.52;;;;;;;6.27;47.72;98106.44;10505800;28;20466;-51
2021/03/18 05:18:17;;;;;;;41.35;12.38;;;;;;;6.36;48.06;98105.56;10506954;28;20431;-51
2021/03/18 05:23:20;;;;;;;41.67;12.60;;;;;;;6.56;47.42;98095.03;10532876;28;20071;-50
2021/03/18 05:28:22;;;;;;;48.13;13.30;;;;;;;6.84;47.17;98104.53;10545713;28;20044;-51
2021/03/18 05:33:24;;;;;;;50.28;13.73;;;;;;;7.15;46.83;98104.22;10535674;28;20055;-51
2021/03/18 05:38:26;;;;;;;48.78;13.57;;;;;;;7.22;46.93;98114.91;10504176;28;20053;-55
2021/03/18 05:43:28;;;;;;;42.45;12.38;;;;;;;7.44;46.36;98105.78;10503622;28;20087;-51
2021/03/18 05:48:30;;;;;;;54.45;13.02;;;;;;;7.56;46.41;98112.44;10511305;28;20135;-50
2021/03/18 05:53:33;;;;;;;49.33;11.63;;;;;;;7.56;46.10;98107.19;10544500;28;20392;-51
2021/03/18 05:58:35;;;;;;;56.80;11.57;;;;;;;7.45;46.32;98110.03;10545349;28;20058;-51
2021/03/18 06:03:37;;;;;;;41.95;10.65;;;;;;;7.50;46.57;98105.19;10542825;28;20044;-51
2021/03/18 06:08:40;;;;;;;46.47;10.50;;;;;;;7.36;46.33;98104.75;10544426;28;20048;-50
2021/03/18 06:13:42;;;;;;;41.72;10.38;;;;;;;7.45;46.67;98110.88;10544352;28;20195;-51
2021/03/18 06:18:44;;;;;;;44.38;11.18;;;;;;;7.90;46.23;98102.06;10544131;28;20048;-51
2021/03/18 06:24:00;;;;;;;45.80;12.20;;;;;;;8.32;45.33;98103.16;10543020;28;20059;-52
2021/03/18 06:29:02;;;;;;;53.67;10.52;;;;;;;8.85;44.93;98108.16;10543841;28;20040;-53
2021/03/18 06:34:04;;;;;;;37.70;10.57;;;;;;;9.52;44.23;98117.81;10541422;28;20043;-55
2021/03/18 06:39:09;;;;;;;46.90;9.82;;;;;;;10.12;42.99;98102.53;10542979;28;20055;-52
2021/03/18 06:44:20;;;;;;;38.22;9.82;;;;;;;10.47;42.20;98099.69;10552050;28;20105;-54
2021/03/18 06:49:23;;;;;;;44.90;11.75;;;;;;;11.35;41.78;98106.50;10548568;28;20040;-53
2021/03/18 06:54:26;;;;;;;37.72;9.65;;;;;;;12.39;40.40;98097.88;10541770;28;20442;-51
2021/03/18 06:59:30;;;;;;;57.83;10.43;;;;;;;12.79;39.60;98106.31;10547708;28;20047;-51
2021/03/18 07:04:39;;;;;;;42.08;11.20;;;;;;;13.16;38.82;98103.69;10543752;28;20503;-51
2021/03/18 07:09:43;;;;;;;47.90;11.57;;;;;;;13.40;38.39;98103.38;10539875;28;20059;-51
2021/03/18 07:14:47;;;;;;;46.17;11.82;;;;;;;14.61;38.09;98106.78;10539555;28;20048;-52
2021/03/18 07:19:48;;;;;;;42.88;11.07;;;;;;;15.22;36.53;98102.56;10539513;28;20155;-51
2021/03/18 07:24:54;;;;;;;48.47;11.43;;;;;;;16.00;35.16;98106.34;10539359;28;20048;-53
2021/03/18 07:29:56;;;;;;;40.17;10.70;;;;;;;19.90;32.04;98097.34;10539497;28;20105;-53
2021/03/18 07:34:58;;;;;;;28.83;10.05;;;;;;;23.76;27.94;98101.66;10549318;28;20040;-53
2021/03/18 07:40:01;;;;;;;45.45;11.65;;;;;;;23.73;26.44;98088.75;10538895;28;20052;-53
2021/03/18 07:45:04;;;;;;;45.40;12.02;;;;;;;21.51;28.01;98093.28;10539538;28;20040;-52
2021/03/18 07:50:10;;;;;;;31.77;9.88;;;;;;;21.54;27.88;98090.94;10539202;28;20099;-54
2021/03/18 07:55:17;;;;;;;33.22;11.27;;;;;;;21.79;26.21;98093.22;10540563;28;20044;-52
2021/03/18 08:00:21;;;;;;;35.45;10.98;;;;;;;21.81;26.46;98085.78;10542716;28;20052;-51
2021/03/18 08:05:38;;;;;;;29.88;9.68;;;;;;;21.00;26.43;98079.75;10538727;28;20048;-53
2021/03/18 08:10:42;;;;;;;30.75;9.55;;;;;;;21.22;25.93;98079.09;10525527;28;20496;-53
2021/03/18 08:15:46;;;;;;;30.95;9.95;;;;;;;20.95;25.88;98081.53;10547005;28;20052;-52
2021/03/18 08:21:08;;;;;;;30.38;10.45;;;;;;;19.66;26.46;98082.34;10542067;28;20065;-54
2021/03/18 08:26:18;;;;;;;36.63;9.30;;;;;;;20.18;26.90;98083.34;10531816;28;20078;-52
2021/03/18 08:31:24;;;;;;;32.58;10.27;;;;;;;20.26;25.40;98079.53;10553941;28;20058;-53
2021/03/18 08:36:29;;;;;;;31.55;10.57;;;;;;;18.90;26.50;98070.47;10554027;28;20123;-53
2021/03/18 08:41:35;;;;;;;32.15;12.13;;;;;;;17.65;27.14;98084.75;10566263;28;20048;-52
2021/03/18 08:46:42;;;;;;;29.08;10.07;;;;;;;16.93;27.53;98087.59;10561702;28;20059;-51
2021/03/18 08:51:47;;;;;;;23.83;7.32;;;;;;;15.59;28.79;98091.41;10554186;28;20067;-55
2021/03/18 08:56:49;;;;;;;20.45;8.00;;;;;;;15.30;29.09;98091.75;10561742;28;20060;-52
2021/03/18 09:02:02;;;;;;;18.48;8.25;;;;;;;14.98;29.29;98096.75;10565671;28;20036;-52
2021/03/18 09:07:04;;;;;;;25.73;8.45;;;;;;;15.16;29.56;98094.38;10554586;28;20383;-52
2021/03/18 09:12:07;;;;;;;19.13;7.18;;;;;;;15.38;29.37;98097.69;10552495;28;20065;-51
2021/03/18 09:17:11;;;;;;;21.55;7.53;;;;;;;14.63;29.82;98085.44;10551523;28;20048;-53
2021/03/18 09:22:14;;;;;;;19.58;6.90;;;;;;;14.19;30.26;98092.69;10551580;28;20068;-51
2021/03/18 09:27:16;;;;;;;26.50;7.97;;;;;;;14.47;29.82;98087.34;10544650;28;20086;-51
2021/03/18 09:32:20;;;;;;;20.83;7.75;;;;;;;14.18;30.08;98098.94;10551634;28;20044;-52
2021/03/18 09:37:22;;;;;;;15.70;7.13;;;;;;;13.56;30.47;98097.03;10553394;28;20043;-53
2021/03/18 09:42:25;;;;;;;19.37;7.70;;;;;;;12.65;31.01;98107.13;10551753;28;20047;-51
2021/03/18 09:47:27;;;;;;;21.35;7.97;;;;;;;11.98;31.67;98106.19;10546848;28;20511;-52
2021/03/18 09:52:29;;;;;;;20.70;7.70;;;;;;;11.46;32.36;98106.91;10544014;28;20044;-52
2021/03/18 09:57:31;;;;;;;21.27;7.10;;;;;;;11.29;32.53;98108.00;10544132;28;20052;-51
2021/03/18 10:02:33;;;;;;;18.42;7.10;;;;;;;11.32;32.76;98105.03;10546708;28;20047;-50
2021/03/18 10:07:35;;;;;;;17.48;6.78;;;;;;;11.19;32.64;98102.97;10543523;28;20044;-52
2021/03/18 10:12:37;;;;;;;19.15;6.57;;;;;;;10.95;32.90;98108.34;10545607;28;20048;-51
2021/03/18 10:17:42;;;;;;;20.17;7.07;;;;;;;10.97;32.75;98107.19;10543049;28;20101;-51
2021/03/18 10:22:46;;;;;;;19.77;6.55;;;;;;;10.85;32.84;98108.56;10544164;28;20106;-52
2021/03/18 10:27:51;;;;;;;15.18;6.38;;;;;;;10.35;33.59;98107.94;10544062;28;20047;-54
2021/03/18 10:33:07;;;;;;;19.15;6.93;;;;;;;10.07;33.71;98104.03;10549513;28;20456;-52
2021/03/18 10:38:11;;;;;;;18.20;6.53;;;;;;;10.07;33.79;98109.28;10545764;28;20055;-51
2021/03/18 10:43:24;;;;;;;13.70;7.00;;;;;;;10.19;33.57;98102.69;10548681;28;20036;-51
2021/03/18 10:48:28;;;;;;;29.55;6.03;;;;;;;10.06;33.89;98103.19;10537802;28;20122;-51
2021/03/18 10:53:29;;;;;;;;;;;;;;;9.91;34.10;98100.44;10541450;28;20044;-50
2021/03/18 10:58:32;;;;;;;16.98;6.43;;;;;;;9.92;34.31;98106.50;10557906;28;19931;-54
2021/03/18 11:03:36;;;;;;;22.90;7.28;;;;;;;10.17;34.19;98103.84;10551050;28;20044;-55
2021/03/18 11:08:42;;;;;;;25.05;7.65;;;;;;;10.14;34.05;98111.06;10549792;28;20067;-52
2021/03/18 11:13:45;;;;;;;17.73;5.38;;;;;;;9.80;34.21;98105.19;10547897;28;20093;-52
2021/03/18 11:18:47;;;;;;;20.95;6.47;;;;;;;9.85;34.52;98111.59;10544165;28;20491;-50
2021/03/18 11:23:51;;;;;;;18.17;6.32;;;;;;;9.99;34.37;98111.91;10542901;28;20056;-54
2021/03/18 11:28:55;;;;;;;18.70;5.95;;;;;;;9.95;34.32;98114.06;10542075;28;20048;-50
2021/03/18 11:34:12;;;;;;;18.40;6.18;;;;;;;9.81;34.26;98115.50;10522854;28;20044;-50
2021/03/18 11:39:14;;;;;;;19.05;5.43;;;;;;;9.41;34.66;98113.69;10527832;28;20063;-50
2021/03/18 11:44:17;;;;;;;13.25;5.70;;;;;;;9.04;35.29;98109.69;10532055;28;20064;-56
2021/03/18 11:49:20;;;;;;;18.50;5.50;;;;;;;8.83;35.41;98120.59;10515309;28;20043;-52
2021/03/18 11:54:22;;;;;;;16.13;6.43;;;;;;;8.88;35.54;98120.94;10542119;28;20040;-54
2021/03/18 11:59:25;;;;;;;14.30;5.40;;;;;;;8.74;35.51;98111.91;10542407;28;20044;-51
2021/03/18 12:04:26;;;;;;;18.13;6.47;;;;;;;8.47;35.93;98125.19;10543110;28;20056;-54
2021/03/18 12:09:28;;;;;;;23.00;6.25;;;;;;;8.36;36.46;98135.91;10542713;28;20294;-52
2021/03/18 12:14:30;;;;;;;23.27;6.18;;;;;;;8.23;36.44;98139.75;10540044;28;20044;-53
2021/03/18 12:19:32;;;;;;;16.30;6.10;;;;;;;8.07;36.94;98137.84;10542776;28;20056;-52
2021/03/18 12:24:34;;;;;;;16.33;5.25;;;;;;;7.99;37.14;98135.16;10546871;28;20056;-53
2021/03/18 12:29:36;;;;;;;28.95;6.75;;;;;;;8.02;37.21;98136.66;10542681;28;20056;-56
2021/03/18 12:34:38;;;;;;;13.15;5.90;;;;;;;7.98;37.37;98135.34;10536605;28;20078;-50
2021/03/18 12:39:40;;;;;;;14.02;5.97;;;;;;;7.89;37.68;98157.19;10538897;28;20051;-52
2021/03/18 12:44:42;;;;;;;20.52;5.53;;;;;;;7.87;37.63;98153.88;10523703;28;20118;-51
2021/03/18 12:49:44;;;;;;;13.90;5.30;;;;;;;7.73;38.11;98152.63;10509787;28;20052;-52
2021/03/18 12:54:46;;;;;;;15.10;4.72;;;;;;;7.49;38.45;98155.84;10511560;28;20051;-56
2021/03/18 12:59:48;;;;;;;17.02;5.72;;;;;;;7.37;38.86;98153.44;10541440;28;20060;-56
2021/03/18 13:04:50;;;;;;;14.18;5.55;;;;;;;7.36;39.11;98149.19;10544367;28;20070;-53
2021/03/18 13:09:52;;;;;;;19.65;6.45;;;;;;;7.30;39.34;98152.41;10544223;28;20134;-50
2021/03/18 13:14:54;;;;;;;16.02;6.38;;;;;;;7.29;39.89;98153.34;10543041;28;20044;-52
2021/03/18 13:19:56;;;;;;;15.57;5.43;;;;;;;7.37;39.59;98152.63;10546172;28;20044;-52
2021/03/18 13:24:57;;;;;;;13.43;6.03;;;;;;;7.50;39.34;98147.03;10552058;28;20116;-53
2021/03/18 13:30:00;;;;;;;14.98;5.60;;;;;;;7.42;40.01;98149.56;10548849;28;20044;-51
2021/03/18 13:35:02;;;;;;;17.00;5.65;;;;;;;7.42;39.93;98147.78;10545430;28;20043;-50
2021/03/18 13:40:06;;;;;;;15.23;6.63;;;;;;;7.42;39.72;98152.16;10547075;28;20044;-52
2021/03/18 13:45:10;;;;;;;12.10;4.72;;;;;;;7.28;40.50;98149.09;10545860;28;20491;-52
2021/03/18 13:50:12;;;;;;;;;;;;;;;7.45;39.78;98149.25;10545580;28;20044;-51
2021/03/18 13:55:14;;;;;;;8.85;4.43;;;;;;;7.46;39.95;98150.91;10545867;28;20023;-54
2021/03/18 14:00:18;;;;;;;10.75;4.03;;;;;;;7.39;40.44;98148.06;10544923;28;20056;-50
2021/03/18 14:05:19;;;;;;;12.05;5.07;;;;;;;7.28;40.37;98154.31;10545054;28;20397;-51
2021/03/18 14:10:22;;;;;;;16.00;5.78;;;;;;;7.34;40.09;98151.13;10544846;28;20621;-52
2021/03/18 14:15:25;;;;;;;13.40;5.47;;;;;;;7.32;40.06;98157.47;10546338;28;20047;-50
2021/03/18 14:20:29;;;;;;;11.55;5.72;;;;;;;7.34;40.51;98164.19;10546482;28;20060;-59
2021/03/18 14:25:31;;;;;;;11.95;5.05;;;;;;;7.25;40.71;98172.09;10544891;28;20036;-54
2021/03/18 14:30:36;;;;;;;14.13;5.70;;;;;;;7.09;40.85;98164.91;10523194;28;20133;-52
2021/03/18 14:35:39;;;;;;;10.18;4.40;;;;;;;7.05;41.10;98169.59;10499825;28;20067;-51
2021/03/18 14:40:42;;;;;;;17.57;6.43;;;;;;;7.05;40.85;98172.22;10498775;28;20121;-51
2021/03/18 14:45:45;;;;;;;13.93;5.90;;;;;;;7.19;40.54;98165.66;10505792;28;20287;-52
2021/03/18 14:50:48;;;;;;;14.65;5.18;;;;;;;7.29;40.40;98169.03;10501017;28;20114;-52
2021/03/18 14:55:51;;;;;;;16.83;5.47;;;;;;;7.25;40.64;98186.00;10519385;28;20058;-50
2021/03/18 15:00:55;;;;;;;10.65;5.72;;;;;;;7.35;40.46;98189.34;10544631;28;20052;-50
2021/03/18 15:05:56;;;;;;;10.85;5.47;;;;;;;7.48;40.49;98190.78;10542400;28;20048;-51
2021/03/18 15:10:59;;;;;;;13.88;6.35;;;;;;;7.53;40.38;98186.75;10543457;28;20056;-50
2021/03/18 15:16:02;;;;;;;18.15;8.60;;;;;;;7.60;40.35;98189.59;10542703;28;20040;-50
2021/03/18 15:21:05;;;;;;;23.65;8.32;;;;;;;7.57;40.18;98192.50;10506244;28;20147;-51
2021/03/18 15:26:06;;;;;;;16.05;6.88;;;;;;;7.65;40.26;98197.03;10507309;28;20044;-52
2021/03/18 15:31:09;;;;;;;19.90;6.43;;;;;;;7.60;40.57;98211.38;10521892;28;20056;-52
2021/03/18 15:36:11;;;;;;;13.30;6.10;;;;;;;7.56;40.21;98209.19;10513119;28;20048;-52
2021/03/18 15:41:13;;;;;;;14.50;5.40;;;;;;;7.37;40.64;98210.94;10544328;28;20136;-54
2021/03/18 15:46:15;;;;;;;12.15;5.80;;;;;;;7.42;40.68;98218.38;10545017;28;20081;-50
2021/03/18 15:51:17;;;;;;;14.32;6.57;;;;;;;7.36;40.53;98219.78;10540617;28;20078;-50
2021/03/18 15:56:19;;;;;;;14.90;6.93;;;;;;;7.37;40.83;98225.81;10540759;28;20043;-51
2021/03/18 16:01:21;;;;;;;14.95;6.78;;;;;;;7.36;40.78;98219.78;10541635;28;20498;-51
2021/03/18 16:06:23;;;;;;;21.60;7.18;;;;;;;7.31;40.89;98229.84;10540935;28;20792;-52
2021/03/18 16:11:25;;;;;;;19.45;7.78;;;;;;;7.33;40.86;98225.28;10544864;28;20476;-51
2021/03/18 16:16:28;;;;;;;19.67;8.73;;;;;;;7.37;40.98;98226.63;10544660;28;20044;-53
2021/03/18 16:21:30;;;;;;;24.33;10.90;;;;;;;7.37;41.32;98221.41;10549520;28;20055;-53
2021/03/18 16:26:31;;;;;;;14.13;6.80;;;;;;;7.35;41.48;98219.91;10542885;28;20385;-51
2021/03/18 16:31:34;;;;;;;15.60;7.18;;;;;;;7.17;41.82;98219.84;10539497;28;20055;-52
2021/03/18 16:36:36;;;;;;;14.98;7.32;;;;;;;7.09;42.24;98219.78;10539598;28;20056;-52
2021/03/18 16:41:38;;;;;;;16.50;6.38;;;;;;;7.13;42.13;98213.28;10530020;28;20101;-53
2021/03/18 16:46:41;;;;;;;16.13;6.70;;;;;;;7.07;42.43;98219.09;10541708;28;20048;-50
2021/03/18 16:51:43;;;;;;;14.68;6.50;;;;;;;6.92;42.94;98227.41;10548351;28;20048;-50
2021/03/18 16:56:46;;;;;;;12.32;6.50;;;;;;;6.96;42.77;98232.34;10547359;28;20400;-50
2021/03/18 17:01:49;;;;;;;12.63;6.47;;;;;;;6.83;42.89;98233.47;10547702;28;20055;-53
2021/03/18 17:06:51;;;;;;;17.40;8.33;;;;;;;6.89;43.07;98230.28;10547231;28;20358;-58
2021/03/18 17:11:53;;;;;;;16.35;8.07;;;;;;;6.96;43.39;98229.72;10546599;28;20047;-51
2021/03/18 17:16:56;;;;;;;16.60;7.25;;;;;;;6.92;43.10;98230.00;10509664;28;20068;-51
2021/03/18 17:21:57;;;;;;;13.20;7.45;;;;;;;6.89;43.84;98225.06;10506661;28;20060;-52
2021/03/18 17:26:59;;;;;;;14.23;6.90;;;;;;;7.02;43.41;98226.53;10526011;28;20048;-53
2021/03/18 17:32:01;;;;;;;14.68;7.28;;;;;;;7.04;43.65;98228.03;10505591;28;20049;-50
2021/03/18 17:37:03;;;;;;;15.43;7.90;;;;;;;7.10;43.44;98230.06;10503853;28;20059;-52
2021/03/18 17:42:05;;;;;;;25.83;12.35;;;;;;;7.12;43.49;98230.75;10504532;28;20040;-55
2021/03/18 17:47:08;;;;;;;23.08;10.23;;;;;;;7.00;43.73;98239.75;10504591;28;20045;-52
2021/03/18 17:52:10;;;;;;;25.00;11.63;;;;;;;6.90;44.12;98239.81;10543834;28;20438;-50
2021/03/18 17:57:11;;;;;;;24.33;11.13;;;;;;;6.94;44.24;98239.50;10546944;28;20055;-50
2021/03/18 18:02:14;;;;;;;19.27;9.05;;;;;;;7.02;44.25;98235.22;10547695;28;20480;-51
2021/03/18 18:07:15;;;;;;;19.88;9.77;;;;;;;7.11;44.30;98241.34;10535467;28;20461;-50
2021/03/18 18:12:17;;;;;;;18.52;8.13;;;;;;;7.09;44.66;98243.31;10503575;28;20431;-52
2021/03/18 18:17:20;;;;;;;14.68;7.68;;;;;;;7.04;44.54;98245.50;10502092;28;20048;-51
2021/03/18 18:22:22;;;;;;;16.90;7.85;;;;;;;7.06;44.95;98240.97;10529133;28;20099;-53
2021/03/18 18:27:24;;;;;;;25.95;10.32;;;;;;;7.12;44.65;98243.84;10545652;28;20096;-57
2021/03/18 18:32:26;;;;;;;13.85;7.47;;;;;;;7.12;45.22;98233.38;10543765;28;20052;-52
2021/03/18 18:37:28;;;;;;;13.93;7.07;;;;;;;7.12;44.88;98237.78;10545192;28;20060;-50
2021/03/18 18:42:30;;;;;;;15.07;7.75;;;;;;;7.06;45.18;98246.19;10544739;28;20051;-53
2021/03/18 18:47:33;;;;;;;16.23;8.00;;;;;;;6.92;45.45;98243.06;10543332;28;20071;-54
2021/03/18 18:52:35;;;;;;;14.80;7.23;;;;;;;6.76;46.11;98242.03;10543099;28;20052;-53
2021/03/18 18:57:37;;;;;;;11.73;6.25;;;;;;;6.60;46.22;98248.69;10542483;28;20109;-50
2021/03/18 19:02:39;;;;;;;10.93;6.03;;;;;;;6.42;46.31;98240.75;10542958;28;20059;-51
2021/03/18 19:07:41;;;;;;;8.70;5.22;;;;;;;6.30;46.93;98246.25;10542041;28;20134;-54
2021/03/18 19:12:43;;;;;;;10.65;5.20;;;;;;;6.21;47.14;98246.13;10541292;28;20058;-50
2021/03/18 19:17:46;;;;;;;11.02;5.53;;;;;;;6.19;47.18;98244.63;10541826;28;20044;-50
2021/03/18 19:22:47;;;;;;;10.50;5.40;;;;;;;6.25;47.03;98236.25;10543193;28;20181;-58
2021/03/18 19:27:49;;;;;;;10.32;5.75;;;;;;;6.32;47.09;98234.72;10542308;28;20384;-51
2021/03/18 19:32:51;;;;;;;12.95;6.07;;;;;;;6.33;47.16;98235.53;10549208;28;20043;-54
2021/03/18 19:37:54;;;;;;;12.77;6.50;;;;;;;6.16;47.18;98239.69;10543894;28;20412;-54
2021/03/18 19:42:56;;;;;;;12.18;6.68;;;;;;;6.02;48.12;98243.53;10547609;28;20039;-54
2021/03/18 19:47:59;;;;;;;8.80;4.85;;;;;;;5.78;48.10;98246.50;10542836;28;20502;-52
2021/03/18 19:53:00;;;;;;;8.75;5.00;;;;;;;5.66;48.20;98258.00;10540931;28;20476;-52
2021/03/18 19:58:02;;;;;;;10.75;5.47;;;;;;;5.62;47.68;98259.25;10541671;28;20073;-51
2021/03/18 20:03:05;;;;;;;11.77;6.03;;;;;;;5.60;47.79;98254.16;10538952;28;20044;-55
2021/03/18 20:08:07;;;;;;;11.43;6.78;;;;;;;5.60;47.98;98259.38;10541967;28;20048;-53
2021/03/18 20:13:09;;;;;;;14.65;7.70;;;;;;;5.60;48.02;98258.56;10544675;28;20426;-49
2021/03/18 20:18:13;;;;;;;10.45;4.93;;;;;;;5.42;48.85;98254.00;10539565;28;20067;-51
2021/03/18 20:23:15;;;;;;;8.07;3.45;;;;;;;5.35;49.16;98252.06;10539156;28;20056;-52
2021/03/18 20:28:18;;;;;;;11.43;3.90;;;;;;;5.31;49.18;98254.91;10540131;28;20492;-53
2021/03/18 20:33:21;;;;;;;11.00;4.03;;;;;;;5.20;49.58;98262.00;10539449;28;20567;-51
2021/03/18 20:38:23;;;;;;;9.55;4.95;;;;;;;5.16;49.28;98255.44;10539494;28;20756;-51
2021/03/18 20:43:25;;;;;;;9.32;5.70;;;;;;;5.02;49.55;98260.03;10539459;28;20044;-51
2021/03/18 20:48:28;;;;;;;10.95;5.95;;;;;;;4.96;49.70;98255.34;10539217;28;20055;-51
2021/03/18 20:53:30;;;;;;;13.20;6.00;;;;;;;4.96;49.78;98251.94;10540025;28;20040;-58
2021/03/18 20:58:32;;;;;;;13.80;6.30;;;;;;;5.02;50.08;98252.22;10541507;28;20047;-50
2021/03/18 21:03:34;;;;;;;13.45;6.78;;;;;;;5.00;50.86;98256.75;10539586;28;20040;-52
2021/03/18 21:08:54;;;;;;;13.43;6.40;;;;;;;5.14;50.54;98252.13;10540005;28;20052;-52
2021/03/18 21:14:14;;;;;;;17.15;6.30;;;;;;;5.09;50.36;98257.75;10539979;28;20080;-54
2021/03/18 21:19:17;;;;;;;11.23;5.05;;;;;;;5.08;50.47;98246.50;10539762;28;20052;-51
2021/03/18 21:24:19;;;;;;;11.30;5.68;;;;;;;5.07;50.41;98247.44;10539764;28;20098;-58
2021/03/18 21:29:20;;;;;;;10.77;5.32;;;;;;;5.03;50.53;98251.28;10542730;28;20060;-59
2021/03/18 21:34:24;;;;;;;11.32;5.60;;;;;;;5.05;51.00;98249.38;10544691;28;20047;-55
2021/03/18 21:39:26;;;;;;;10.77;5.90;;;;;;;5.06;51.32;98245.78;10512233;28;20048;-52
2021/03/18 21:44:28;;;;;;;12.65;5.72;;;;;;;5.04;50.82;98246.88;10549536;28;20052;-55
2021/03/18 21:49:30;;;;;;;11.60;6.45;;;;;;;5.10;51.25;98245.53;10546616;28;20043;-52
2021/03/18 21:54:32;;;;;;;7.03;3.85;;;;;;;5.13;50.92;98248.69;10546253;28;20041;-54
2021/03/18 21:59:34;;;;;;;8.75;3.55;;;;;;;5.06;51.09;98256.22;10547592;28;20499;-60
2021/03/18 22:04:37;;;;;;;7.90;3.80;;;;;;;4.86;51.48;98264.88;10546074;28;20058;-50
2021/03/18 22:09:38;;;;;;;7.28;3.40;;;;;;;4.68;52.28;98261.22;10545067;28;20052;-52
2021/03/18 22:14:40;;;;;;;8.15;3.75;;;;;;;4.62;52.22;98267.78;10544049;28;20048;-53
2021/03/18 22:19:42;;;;;;;8.48;3.22;;;;;;;4.64;51.97;98265.06;10544258;28;20048;-53
2021/03/18 22:24:44;;;;;;;7.07;3.30;;;;;;;4.56;51.86;98263.09;10544444;28;20051;-49
2021/03/18 22:29:45;;;;;;;7.63;3.70;;;;;;;4.44;52.56;98275.34;10545410;28;20047;-50
2021/03/18 22:34:48;;;;;;;8.82;4.10;;;;;;;4.47;52.60;98274.28;10541940;28;20161;-53
2021/03/18 22:39:49;;;;;;;7.32;3.80;;;;;;;4.53;52.54;98290.22;10546970;28;20078;-55
2021/03/18 22:44:52;;;;;;;9.00;3.63;;;;;;;4.36;52.94;98283.78;10548046;28;20048;-53
2021/03/18 22:49:55;;;;;;;9.38;4.30;;;;;;;4.22;53.06;98296.25;10544653;28;20392;-51
2021/03/18 22:54:56;;;;;;;7.47;4.00;;;;;;;4.17;53.37;98298.44;10543149;28;20067;-52
2021/03/18 22:59:58;;;;;;;8.77;3.97;;;;;;;4.23;53.57;98308.34;10541303;28;20052;-49
2021/03/18 23:05:01;;;;;;;10.18;4.28;;;;;;;4.30;53.49;98312.91;10542102;28;20048;-50
2021/03/18 23:10:05;;;;;;;8.38;3.92;;;;;;;4.25;53.85;98309.00;10541852;28;20540;-51
2021/03/18 23:15:10;;;;;;;7.72;4.07;;;;;;;4.32;53.22;98308.41;10541741;28;20203;-52
2021/03/18 23:20:15;;;;;;;6.72;3.80;;;;;;;4.21;53.99;98308.44;10542123;28;20044;-51
2021/03/18 23:25:17;;;;;;;6.20;3.10;;;;;;;4.19;53.73;98307.75;10458598;28;20124;-50